createdAt,value
2022-10-05T02:00:50.376Z,90.09
2022-10-05T02:01:11.000Z,89.89
2022-10-05T02:01:31.680Z,89.89
2022-10-05T02:01:52.322Z,89.98
2022-10-05T02:02:12.942Z,90.09
2022-10-05T02:02:33.630Z,89.98
2022-10-05T02:02:54.224Z,89.83
2022-10-05T02:03:14.812Z,89.78
2022-10-05T02:03:35.390Z,89.83
2022-10-05T02:03:55.973Z,89.78
2022-10-05T02:04:35.558Z,89.89
2022-10-05T02:05:00.980Z,90.13
2022-10-05T02:05:01.817Z,90.19
2022-10-05T02:05:17.765Z,90.23
2022-10-05T02:05:38.348Z,90.03
2022-10-05T02:05:58.930Z,89.83
2022-10-05T02:06:19.513Z,90.13
2022-10-05T02:06:39.922Z,90.39
2022-10-05T02:07:00.501Z,90.54
2022-10-05T02:07:21.097Z,90.64
2022-10-05T02:07:41.679Z,90.23
2022-10-05T02:08:02.094Z,89.92
2022-10-05T02:08:22.668Z,90.13
2022-10-05T02:08:43.062Z,90.03
2022-10-05T02:09:03.459Z,90.23
2022-10-05T02:09:23.857Z,90.54
2022-10-05T02:09:44.438Z,90.75
2022-10-05T02:10:05.016Z,90.84
2022-10-05T02:10:25.593Z,90.84
2022-10-05T02:10:46.178Z,91.05
2022-10-05T02:11:06.765Z,91.16
2022-10-05T02:11:27.343Z,91.16
2022-10-05T02:11:47.944Z,91.16
2022-10-05T02:12:08.526Z,91.05
2022-10-05T02:12:29.103Z,90.95
2022-10-05T02:12:49.508Z,91.05
2022-10-05T02:13:10.090Z,91.05
2022-10-05T02:13:30.675Z,90.84
2022-10-05T02:13:51.254Z,90.54
2022-10-05T02:14:11.835Z,90.54
2022-10-05T02:14:35.801Z,90.44
2022-10-05T02:15:43.208Z,89.92
2022-10-05T02:16:03.882Z,89.92
2022-10-05T02:16:24.544Z,90.13
2022-10-05T02:16:45.302Z,90.44
2022-10-05T02:17:06.013Z,90.75
2022-10-05T02:17:26.604Z,90.95
2022-10-05T02:17:46.986Z,90.84
2022-10-05T02:18:07.574Z,90.64
2022-10-05T02:18:28.153Z,90.34
2022-10-05T02:18:48.552Z,90.54
2022-10-05T02:19:08.950Z,90.54
2022-10-05T02:19:29.348Z,90.54
2022-10-05T02:19:49.930Z,90.44
2022-10-05T02:20:10.511Z,90.44
2022-10-05T02:20:31.095Z,90.54
2022-10-05T02:20:51.488Z,90.84
2022-10-05T02:21:11.879Z,91.16
2022-10-05T02:21:32.474Z,91.16
2022-10-05T02:21:53.066Z,90.95
2022-10-05T02:22:13.459Z,90.64
2022-10-05T02:22:34.037Z,90.64
2022-10-05T02:22:54.622Z,90.44
2022-10-05T02:23:15.202Z,90.44
2022-10-05T02:23:35.787Z,90.54
2022-10-05T02:23:56.369Z,90.54
2022-10-05T02:24:16.955Z,90.54
2022-10-05T02:24:37.538Z,90.54
2022-10-05T02:24:58.115Z,90.64
2022-10-05T02:25:18.515Z,90.54
2022-10-05T02:25:39.093Z,90.64
2022-10-05T02:25:59.672Z,90.95
2022-10-05T02:26:20.249Z,90.95
2022-10-05T02:26:40.847Z,90.75
2022-10-05T02:27:01.431Z,90.64
2022-10-05T02:27:22.023Z,90.64
2022-10-05T02:27:42.602Z,90.84
2022-10-05T02:28:03.271Z,91.05
2022-10-05T02:28:24.002Z,91.26
2022-10-05T02:28:44.577Z,90.64
2022-10-05T02:29:05.163Z,90.23
2022-10-05T02:29:25.739Z,90.34
2022-10-05T02:29:46.315Z,90.44
2022-10-05T02:30:06.712Z,90.84
2022-10-05T02:30:27.299Z,90.95
2022-10-05T02:30:47.882Z,90.84
2022-10-05T02:31:08.542Z,90.64
2022-10-05T02:31:29.146Z,90.75
2022-10-05T02:31:49.774Z,90.75
2022-10-05T02:32:10.351Z,90.64
2022-10-05T02:32:30.748Z,90.44
2022-10-05T02:32:51.333Z,90.37
2022-10-05T02:33:11.911Z,90.48
2022-10-05T02:33:32.304Z,90.58
2022-10-05T02:33:52.886Z,90.58
2022-10-05T02:34:13.285Z,90.58
2022-10-05T02:34:33.680Z,90.58
2022-10-05T02:34:54.261Z,90.69
2022-10-05T02:35:14.847Z,90.48
2022-10-05T02:35:35.426Z,90.79
2022-10-05T02:35:56.009Z,90.99
2022-10-05T02:36:16.588Z,91.20
2022-10-05T02:36:37.001Z,91.20
2022-10-05T02:36:57.583Z,91.30
2022-10-05T02:37:18.164Z,91.30
2022-10-05T02:37:38.756Z,90.89
2022-10-05T02:37:59.340Z,90.48
2022-10-05T02:38:19.926Z,90.69
2022-10-05T02:38:40.323Z,90.99
2022-10-05T02:39:00.908Z,90.89
2022-10-05T02:39:21.489Z,91.09
2022-10-05T02:39:41.879Z,91.09
2022-10-05T02:40:02.467Z,91.09
2022-10-05T02:40:23.047Z,91.09
2022-10-05T02:40:43.635Z,90.99
2022-10-05T02:41:04.215Z,90.79
2022-10-05T02:41:24.798Z,90.79
2022-10-05T02:41:45.397Z,90.79
2022-10-05T02:42:05.973Z,90.69
2022-10-05T02:42:26.552Z,90.89
2022-10-05T02:42:46.949Z,90.79
2022-10-05T02:43:07.346Z,90.37
2022-10-05T02:43:27.923Z,90.28
2022-10-05T02:43:48.507Z,90.17
2022-10-05T02:44:09.086Z,90.48
2022-10-05T02:44:29.670Z,90.58
2022-10-05T02:44:50.251Z,90.89
2022-10-05T02:45:10.830Z,91.30
2022-10-05T02:45:31.489Z,91.61
2022-10-05T02:45:52.223Z,91.50
2022-10-05T02:46:12.867Z,91.20
2022-10-05T02:46:33.476Z,91.30
2022-10-05T02:46:57.231Z,91.09
2022-10-05T02:47:18.283Z,90.89
2022-10-05T02:47:38.868Z,91.09
2022-10-05T02:47:59.454Z,91.30
2022-10-05T02:48:20.037Z,91.30
2022-10-05T02:48:40.625Z,91.30
2022-10-05T02:49:01.203Z,91.09
2022-10-05T02:49:21.785Z,91.09
2022-10-05T02:49:42.370Z,91.40
2022-10-05T02:50:02.946Z,91.50
2022-10-05T02:50:23.533Z,91.50
2022-10-05T02:50:44.113Z,91.61
2022-10-05T02:51:04.697Z,91.40
2022-10-05T02:51:25.280Z,91.09
2022-10-05T02:51:45.892Z,91.09
2022-10-05T02:52:06.476Z,91.20
2022-10-05T02:52:27.055Z,91.09
2022-10-05T02:52:47.451Z,90.79
2022-10-05T02:53:08.034Z,90.58
2022-10-05T02:53:28.614Z,90.48
2022-10-05T02:53:49.198Z,90.79
2022-10-05T02:54:09.780Z,90.99
2022-10-05T02:54:30.362Z,91.40
2022-10-05T02:54:50.769Z,91.91
2022-10-05T02:55:11.340Z,92.22
2022-10-05T02:55:31.923Z,92.22
2022-10-05T02:55:52.315Z,91.91
2022-10-05T02:56:12.897Z,92.02
2022-10-05T02:56:33.495Z,91.91
2022-10-05T02:56:53.889Z,91.61
2022-10-05T02:57:14.631Z,91.82
2022-10-05T02:57:35.032Z,91.82
2022-10-05T02:57:55.618Z,91.91
2022-10-05T02:58:16.208Z,92.02
2022-10-05T02:58:36.794Z,92.12
2022-10-05T02:58:57.392Z,92.12
2022-10-05T02:59:17.961Z,92.02
2022-10-05T02:59:38.358Z,91.91
2022-10-05T02:59:58.942Z,92.02
2022-10-05T03:00:19.529Z,92.12
2022-10-05T03:00:40.110Z,92.22
2022-10-05T03:01:00.800Z,92.22
2022-10-05T03:01:21.455Z,92.22
2022-10-05T03:01:42.173Z,92.32
2022-10-05T03:02:02.885Z,92.32
2022-10-05T03:02:23.546Z,92.22
2022-10-05T03:02:44.344Z,92.02
2022-10-05T03:03:04.923Z,91.82
2022-10-05T03:03:25.513Z,91.71
2022-10-05T03:03:46.093Z,91.61
2022-10-05T03:04:06.679Z,91.82
2022-10-05T03:04:27.260Z,91.82
2022-10-05T03:04:47.840Z,91.71
2022-10-05T03:05:08.424Z,91.61
2022-10-05T03:05:29.003Z,91.71
2022-10-05T03:05:49.404Z,91.82
2022-10-05T03:06:09.979Z,92.02
2022-10-05T03:06:30.563Z,92.02
2022-10-05T03:06:51.162Z,92.22
2022-10-05T03:07:11.742Z,92.22
2022-10-05T03:07:32.329Z,92.02
2022-10-05T03:07:52.908Z,91.91
2022-10-05T03:08:13.494Z,91.82
2022-10-05T03:08:34.073Z,91.91
2022-10-05T03:08:54.659Z,91.82
2022-10-05T03:09:15.240Z,91.91
2022-10-05T03:09:35.831Z,91.82
2022-10-05T03:10:00.746Z,91.71
2022-10-05T03:10:16.591Z,91.71
2022-10-05T03:10:37.169Z,91.82
2022-10-05T03:10:57.753Z,91.91
2022-10-05T03:11:18.331Z,92.02
2022-10-05T03:11:38.930Z,92.12
2022-10-05T03:11:59.513Z,92.02
2022-10-05T03:12:20.098Z,92.12
2022-10-05T03:12:40.682Z,92.12
2022-10-05T03:13:01.265Z,92.32
2022-10-05T03:13:21.850Z,92.32
2022-10-05T03:13:42.430Z,92.12
2022-10-05T03:14:03.017Z,92.12
2022-10-05T03:14:23.600Z,92.12
2022-10-05T03:14:43.998Z,92.22
2022-10-05T03:15:04.578Z,92.02
2022-10-05T03:15:25.158Z,91.91
2022-10-05T03:15:45.824Z,91.71
2022-10-05T03:16:06.435Z,91.82
2022-10-05T03:16:27.091Z,92.02
2022-10-05T03:16:48.079Z,92.43
2022-10-05T03:17:08.878Z,92.83
2022-10-05T03:17:29.465Z,92.63
2022-10-05T03:17:50.046Z,92.43
2022-10-05T03:18:10.442Z,92.32
2022-10-05T03:18:31.115Z,92.32
2022-10-05T03:18:51.645Z,92.32
2022-10-05T03:19:12.232Z,92.43
2022-10-05T03:19:32.816Z,92.53
2022-10-05T03:19:53.207Z,92.53
2022-10-05T03:20:13.791Z,92.63
2022-10-05T03:20:34.372Z,92.63
2022-10-05T03:20:54.959Z,92.53
2022-10-05T03:21:15.353Z,92.43
2022-10-05T03:21:35.950Z,92.22
2022-10-05T03:21:56.531Z,92.22
2022-10-05T03:22:17.109Z,92.22
2022-10-05T03:22:37.695Z,92.32
2022-10-05T03:22:58.268Z,92.43
2022-10-05T03:23:18.856Z,92.32
2022-10-05T03:23:39.437Z,92.02
2022-10-05T03:24:00.020Z,92.02
2022-10-05T03:24:20.596Z,91.91
2022-10-05T03:24:41.178Z,91.82
2022-10-05T03:25:01.762Z,91.61
2022-10-05T03:25:22.348Z,91.50
2022-10-05T03:25:42.925Z,91.40
2022-10-05T03:26:03.515Z,91.40
2022-10-05T03:26:24.100Z,91.30
2022-10-05T03:26:45.029Z,91.20
2022-10-05T03:27:05.853Z,91.20
2022-10-05T03:27:26.433Z,91.30
2022-10-05T03:27:47.026Z,91.61
2022-10-05T03:28:07.663Z,92.12
2022-10-05T03:28:28.243Z,92.22
2022-10-05T03:28:48.809Z,92.12
2022-10-05T03:29:09.393Z,91.82
2022-10-05T03:29:29.974Z,91.61
2022-10-05T03:29:50.560Z,91.61
2022-10-05T03:30:11.140Z,91.61
2022-10-05T03:30:31.722Z,91.61
2022-10-05T03:30:52.172Z,91.71
2022-10-05T03:31:12.743Z,91.71
2022-10-05T03:31:33.211Z,91.82
2022-10-05T03:31:53.808Z,91.71
2022-10-05T03:32:14.397Z,91.61
2022-10-05T03:32:34.980Z,91.82
2022-10-05T03:32:55.563Z,91.91
2022-10-05T03:33:16.145Z,92.02
2022-10-05T03:33:36.728Z,91.91
2022-10-05T03:33:57.307Z,91.82
2022-10-05T03:34:17.911Z,91.71
2022-10-05T03:34:38.505Z,91.82
2022-10-05T03:34:59.098Z,91.71
2022-10-05T03:35:19.679Z,91.50
2022-10-05T03:35:40.079Z,91.30
2022-10-05T03:36:00.669Z,91.09
2022-10-05T03:36:21.238Z,91.09
2022-10-05T03:36:41.831Z,91.20
2022-10-05T03:37:02.416Z,91.30
2022-10-05T03:37:22.994Z,91.61
2022-10-05T03:37:43.578Z,91.82
2022-10-05T03:38:04.152Z,91.71
2022-10-05T03:38:24.729Z,91.71
2022-10-05T03:38:45.307Z,91.61
2022-10-05T03:39:05.702Z,91.50
2022-10-05T03:39:26.281Z,91.40
2022-10-05T03:39:46.677Z,91.20
2022-10-05T03:40:07.259Z,91.09
2022-10-05T03:40:27.839Z,91.09
2022-10-05T03:40:48.426Z,91.09
2022-10-05T03:41:09.012Z,91.09
2022-10-05T03:41:29.608Z,91.30
2022-10-05T03:41:50.193Z,91.40
2022-10-05T03:42:10.773Z,91.50
2022-10-05T03:42:31.358Z,91.40
2022-10-05T03:42:51.937Z,91.30
2022-10-05T03:43:12.521Z,91.40
2022-10-05T03:43:33.102Z,91.61
2022-10-05T03:43:53.683Z,91.61
2022-10-05T03:44:14.270Z,91.71
2022-10-05T03:44:34.850Z,91.50
2022-10-05T03:44:55.430Z,91.20
2022-10-05T03:45:16.015Z,91.09
2022-10-05T03:45:36.599Z,91.09
2022-10-05T03:45:57.231Z,91.30
2022-10-05T03:46:17.863Z,91.50
2022-10-05T03:46:38.609Z,91.50
2022-10-05T03:46:59.199Z,91.40
2022-10-05T03:47:19.780Z,91.40
2022-10-05T03:47:40.357Z,91.50
2022-10-05T03:48:01.650Z,91.40
2022-10-05T03:48:22.363Z,91.30
2022-10-05T03:48:42.948Z,91.30
2022-10-05T03:49:03.533Z,91.40
2022-10-05T03:49:24.115Z,91.50
2022-10-05T03:49:44.692Z,91.50
2022-10-05T03:50:05.278Z,91.40
2022-10-05T03:50:25.857Z,91.30
2022-10-05T03:50:46.445Z,91.30
2022-10-05T03:51:07.025Z,91.20
2022-10-05T03:51:27.600Z,91.30
2022-10-05T03:51:48.192Z,91.30
2022-10-05T03:52:08.779Z,91.30
2022-10-05T03:52:29.365Z,91.40
2022-10-05T03:52:49.947Z,91.50
2022-10-05T03:53:10.538Z,91.61
2022-10-05T03:53:31.110Z,91.50
2022-10-05T03:53:51.693Z,90.99
2022-10-05T03:54:12.277Z,90.89
2022-10-05T03:54:32.859Z,90.79
2022-10-05T03:54:53.440Z,90.89
2022-10-05T03:55:14.025Z,90.99
2022-10-05T03:55:34.609Z,90.99
2022-10-05T03:55:55.193Z,90.99
2022-10-05T03:56:15.590Z,90.89
2022-10-05T03:56:36.183Z,90.99
2022-10-05T03:56:56.581Z,90.99
2022-10-05T03:57:17.163Z,91.09
2022-10-05T03:57:37.749Z,90.99
2022-10-05T03:57:58.335Z,90.95
2022-10-05T03:58:18.968Z,90.95
2022-10-05T03:58:39.555Z,90.84
2022-10-05T03:59:00.141Z,90.89
2022-10-05T03:59:20.721Z,90.75
2022-10-05T03:59:41.306Z,90.84
2022-10-05T04:00:01.899Z,90.84
2022-10-05T04:00:22.509Z,90.84
2022-10-05T04:00:43.067Z,90.95
2022-10-05T04:01:03.659Z,90.84
2022-10-05T04:01:24.253Z,90.84
2022-10-05T04:01:44.782Z,90.84
2022-10-05T04:02:05.368Z,90.84
2022-10-05T04:02:26.002Z,91.16
2022-10-05T04:02:46.639Z,90.95
2022-10-05T04:03:06.938Z,90.75
2022-10-05T04:03:27.518Z,90.64
2022-10-05T04:03:48.105Z,90.54
2022-10-05T04:04:08.688Z,90.54
2022-10-05T04:04:29.271Z,90.54
2022-10-05T04:04:49.861Z,90.54
2022-10-05T04:05:10.437Z,90.75
2022-10-05T04:05:31.020Z,90.75
2022-10-05T04:05:51.608Z,90.64
2022-10-05T04:06:12.190Z,90.95
2022-10-05T04:06:32.795Z,91.05
2022-10-05T04:06:53.377Z,90.95
2022-10-05T04:07:13.958Z,90.84
2022-10-05T04:07:34.542Z,90.95
2022-10-05T04:07:55.122Z,90.84
2022-10-05T04:08:15.703Z,90.64
2022-10-05T04:08:36.279Z,90.44
2022-10-05T04:08:56.868Z,90.44
2022-10-05T04:09:17.455Z,90.54
2022-10-05T04:09:37.850Z,90.54
2022-10-05T04:09:58.248Z,90.64
2022-10-05T04:10:18.823Z,90.84
2022-10-05T04:10:39.405Z,90.95
2022-10-05T04:10:59.987Z,90.95
2022-10-05T04:11:20.568Z,90.75
2022-10-05T04:11:41.167Z,90.64
2022-10-05T04:12:01.749Z,90.84
2022-10-05T04:12:22.333Z,90.75
2022-10-05T04:12:42.913Z,90.64
2022-10-05T04:13:03.498Z,90.75
2022-10-05T04:13:24.080Z,90.95
2022-10-05T04:13:44.664Z,91.05
2022-10-05T04:14:05.245Z,90.95
2022-10-05T04:14:25.826Z,90.84
2022-10-05T04:14:46.406Z,90.64
2022-10-05T04:15:06.990Z,90.44
2022-10-05T04:15:27.576Z,90.23
2022-10-05T04:15:48.255Z,90.23
2022-10-05T04:16:08.590Z,90.23
2022-10-05T04:16:29.168Z,90.34
2022-10-05T04:16:49.941Z,90.34
2022-10-05T04:17:10.537Z,90.34
2022-10-05T04:17:30.933Z,90.34
2022-10-05T04:17:51.519Z,90.34
2022-10-05T04:18:12.105Z,90.23
2022-10-05T04:18:32.687Z,90.13
2022-10-05T04:18:53.269Z,90.23
2022-10-05T04:19:13.852Z,90.34
2022-10-05T04:19:34.433Z,90.23
2022-10-05T04:19:55.014Z,90.13
2022-10-05T04:20:15.598Z,90.03
2022-10-05T04:20:36.182Z,90.03
2022-10-05T04:20:56.576Z,89.83
2022-10-05T04:21:20.171Z,89.72
2022-10-05T04:21:37.573Z,89.83
2022-10-05T04:21:57.973Z,89.83
2022-10-05T04:22:18.558Z,89.83
2022-10-05T04:22:39.142Z,90.03
2022-10-05T04:22:59.723Z,89.92
2022-10-05T04:23:20.304Z,89.72
2022-10-05T04:23:40.886Z,89.72
2022-10-05T04:24:01.469Z,89.72
2022-10-05T04:24:22.052Z,89.72
2022-10-05T04:24:42.634Z,89.92
2022-10-05T04:25:03.216Z,90.03
2022-10-05T04:25:23.800Z,90.13
2022-10-05T04:25:44.381Z,90.03
2022-10-05T04:26:04.967Z,90.03
2022-10-05T04:26:25.551Z,90.03
2022-10-05T04:26:46.553Z,89.83
2022-10-05T04:27:07.388Z,89.72
2022-10-05T04:27:27.965Z,89.83
2022-10-05T04:27:48.366Z,90.03
2022-10-05T04:28:08.789Z,90.23
2022-10-05T04:28:32.138Z,90.44
2022-10-05T04:28:53.070Z,90.34
2022-10-05T04:29:13.650Z,90.13
2022-10-05T04:29:34.234Z,89.92
2022-10-05T04:29:54.813Z,89.92
2022-10-05T04:30:15.393Z,89.92
2022-10-05T04:30:35.977Z,90.03
2022-10-05T04:30:56.665Z,90.13
2022-10-05T04:31:16.991Z,90.34
2022-10-05T04:31:37.600Z,90.44
2022-10-05T04:31:58.191Z,90.13
2022-10-05T04:32:18.744Z,90.13
2022-10-05T04:32:39.140Z,90.13
2022-10-05T04:32:59.727Z,89.92
2022-10-05T04:33:20.312Z,89.72
2022-10-05T04:33:40.895Z,89.72
2022-10-05T04:34:01.287Z,89.72
2022-10-05T04:34:21.871Z,89.72
2022-10-05T04:34:42.455Z,89.83
2022-10-05T04:35:03.036Z,89.83
2022-10-05T04:35:23.615Z,89.92
2022-10-05T04:35:44.012Z,89.83
2022-10-05T04:36:04.592Z,89.83
2022-10-05T04:36:25.180Z,89.92
2022-10-05T04:36:46.092Z,89.92
2022-10-05T04:37:06.750Z,90.13
2022-10-05T04:37:27.334Z,90.34
2022-10-05T04:37:47.914Z,90.34
2022-10-05T04:38:08.488Z,90.23
2022-10-05T04:38:29.070Z,90.13
2022-10-05T04:38:49.652Z,90.13
2022-10-05T04:39:10.230Z,90.34
2022-10-05T04:39:30.816Z,90.54
2022-10-05T04:39:51.213Z,90.44
2022-10-05T04:40:11.798Z,90.23
2022-10-05T04:40:32.197Z,90.23
2022-10-05T04:40:52.774Z,90.23
2022-10-05T04:41:13.357Z,90.13
2022-10-05T04:41:33.964Z,90.13
2022-10-05T04:41:54.538Z,90.34
2022-10-05T04:42:15.121Z,90.44
2022-10-05T04:42:35.702Z,90.54
2022-10-05T04:42:56.281Z,90.64
2022-10-05T04:43:16.864Z,90.75
2022-10-05T04:43:37.444Z,90.64
2022-10-05T04:43:58.022Z,90.75
2022-10-05T04:44:18.605Z,90.75
2022-10-05T04:44:39.191Z,90.75
2022-10-05T04:44:59.771Z,90.84
2022-10-05T04:45:20.354Z,90.84
2022-10-05T04:45:40.938Z,90.54
2022-10-05T04:46:01.520Z,90.23
2022-10-05T04:46:22.154Z,90.23
2022-10-05T04:46:42.567Z,90.13
2022-10-05T04:47:03.214Z,90.23
2022-10-05T04:47:23.792Z,90.44
2022-10-05T04:47:44.373Z,90.54
2022-10-05T04:48:04.951Z,90.64
2022-10-05T04:48:25.535Z,90.84
2022-10-05T04:48:46.113Z,91.05
2022-10-05T04:49:06.694Z,91.05
2022-10-05T04:49:27.282Z,91.16
2022-10-05T04:49:47.858Z,91.26
2022-10-05T04:50:08.436Z,91.36
2022-10-05T04:50:29.023Z,91.46
2022-10-05T04:50:49.604Z,91.46
2022-10-05T04:51:10.186Z,91.46
2022-10-05T04:51:30.764Z,91.26
2022-10-05T04:51:51.520Z,91.26
2022-10-05T04:52:11.757Z,91.16
2022-10-05T04:52:32.337Z,91.05
2022-10-05T04:52:52.927Z,91.05
2022-10-05T04:53:13.503Z,91.16
2022-10-05T04:53:34.085Z,90.84
2022-10-05T04:53:54.674Z,90.84
2022-10-05T04:54:15.258Z,90.95
2022-10-05T04:54:35.842Z,91.05
2022-10-05T04:54:56.427Z,91.16
2022-10-05T04:55:17.008Z,91.46
2022-10-05T04:55:37.593Z,91.67
2022-10-05T04:55:58.192Z,91.56
2022-10-05T04:56:18.778Z,91.46
2022-10-05T04:56:39.186Z,91.16
2022-10-05T04:56:59.770Z,90.95
2022-10-05T04:57:20.355Z,90.84
2022-10-05T04:57:40.935Z,90.84
2022-10-05T04:58:01.525Z,91.16
2022-10-05T04:58:21.922Z,91.46
2022-10-05T04:58:42.771Z,91.36
2022-10-05T04:59:03.349Z,91.26
2022-10-05T04:59:23.936Z,91.26
2022-10-05T04:59:44.516Z,91.26
2022-10-05T05:00:05.105Z,91.16
2022-10-05T05:00:25.680Z,91.16
2022-10-05T05:00:46.189Z,91.26
2022-10-05T05:01:06.849Z,91.05
2022-10-05T05:01:27.456Z,90.64
2022-10-05T05:01:48.041Z,90.34
2022-10-05T05:02:08.642Z,90.34
2022-10-05T05:02:29.202Z,90.54
2022-10-05T05:02:49.781Z,90.84
2022-10-05T05:03:10.371Z,91.05
2022-10-05T05:03:30.994Z,90.95
2022-10-05T05:03:51.618Z,90.95
2022-10-05T05:04:12.264Z,90.95
2022-10-05T05:04:32.862Z,90.84
2022-10-05T05:04:53.457Z,90.84
2022-10-05T05:05:14.028Z,90.84
2022-10-05T05:05:34.613Z,90.75
2022-10-05T05:06:15.871Z,90.84
2022-10-05T05:06:17.997Z,90.84
2022-10-05T05:06:36.006Z,90.64
2022-10-05T05:06:56.585Z,90.44
2022-10-05T05:07:17.168Z,90.34
2022-10-05T05:07:37.749Z,90.23
2022-10-05T05:07:58.331Z,90.23
2022-10-05T05:08:18.908Z,90.23
2022-10-05T05:08:39.489Z,90.23
2022-10-05T05:09:00.094Z,90.28
2022-10-05T05:09:20.657Z,90.23
2022-10-05T05:09:41.243Z,90.44
2022-10-05T05:10:01.638Z,90.44
2022-10-05T05:10:22.222Z,90.34
2022-10-05T05:10:42.802Z,90.23
2022-10-05T05:11:03.389Z,90.23
2022-10-05T05:11:24.790Z,90.34
2022-10-05T05:11:44.416Z,90.34
2022-10-05T05:12:04.786Z,90.34
2022-10-05T05:12:25.369Z,90.54
2022-10-05T05:12:45.950Z,90.64
2022-10-05T05:13:06.531Z,90.64
2022-10-05T05:13:27.115Z,90.54
2022-10-05T05:13:47.508Z,90.54
2022-10-05T05:14:08.088Z,90.54
2022-10-05T05:14:28.674Z,90.23
2022-10-05T05:14:49.256Z,90.13
2022-10-05T05:15:09.841Z,90.13
2022-10-05T05:15:30.417Z,90.23
2022-10-05T05:15:51.046Z,90.54
2022-10-05T05:16:11.723Z,90.84
2022-10-05T05:16:32.452Z,90.75
2022-10-05T05:16:53.107Z,90.75
2022-10-05T05:17:13.706Z,90.75
2022-10-05T05:17:34.271Z,90.84
2022-10-05T05:17:54.882Z,90.44
2022-10-05T05:18:15.433Z,90.23
2022-10-05T05:18:36.021Z,90.44
2022-10-05T05:18:56.600Z,90.34
2022-10-05T05:19:17.183Z,90.23
2022-10-05T05:19:37.765Z,90.34
2022-10-05T05:19:58.349Z,90.34
2022-10-05T05:20:18.929Z,90.54
2022-10-05T05:20:39.512Z,90.54
2022-10-05T05:21:00.103Z,90.75
2022-10-05T05:21:20.687Z,90.84
2022-10-05T05:21:41.289Z,90.54
2022-10-05T05:22:01.872Z,90.34
2022-10-05T05:22:22.472Z,90.44
2022-10-05T05:22:43.032Z,90.54
2022-10-05T05:23:03.423Z,90.64
2022-10-05T05:23:24.007Z,90.44
2022-10-05T05:23:44.597Z,90.23
2022-10-05T05:24:05.187Z,90.34
2022-10-05T05:24:25.757Z,90.64
2022-10-05T05:24:46.342Z,90.75
2022-10-05T05:25:06.926Z,90.64
2022-10-05T05:25:27.317Z,90.54
2022-10-05T05:25:47.898Z,90.64
2022-10-05T05:26:08.299Z,90.54
2022-10-05T05:26:28.873Z,90.44
2022-10-05T05:26:49.880Z,90.44
2022-10-05T05:27:10.581Z,90.54
2022-10-05T05:27:31.165Z,90.54
2022-10-05T05:27:51.742Z,90.64
2022-10-05T05:28:12.474Z,90.64
2022-10-05T05:28:33.071Z,90.64
2022-10-05T05:28:53.622Z,90.64
2022-10-05T05:29:14.202Z,90.64
2022-10-05T05:29:34.790Z,90.54
2022-10-05T05:29:55.384Z,90.54
2022-10-05T05:30:15.969Z,90.44
2022-10-05T05:30:36.547Z,90.44
2022-10-05T05:30:56.980Z,90.34
2022-10-05T05:31:17.660Z,90.23
2022-10-05T05:31:38.010Z,90.44
2022-10-05T05:31:58.582Z,90.34
2022-10-05T05:32:19.184Z,90.64
2022-10-05T05:32:39.743Z,90.64
2022-10-05T05:33:00.325Z,90.75
2022-10-05T05:33:20.915Z,90.64
2022-10-05T05:33:41.488Z,90.54
2022-10-05T05:34:02.070Z,90.44
2022-10-05T05:34:22.649Z,90.34
2022-10-05T05:34:43.229Z,90.34
2022-10-05T05:35:03.808Z,90.44
2022-10-05T05:35:24.391Z,90.54
2022-10-05T05:35:44.974Z,90.64
2022-10-05T05:36:05.581Z,90.44
2022-10-05T05:36:26.165Z,90.23
2022-10-05T05:36:47.241Z,90.23
2022-10-05T05:37:08.001Z,90.23
2022-10-05T05:37:28.584Z,90.23
2022-10-05T05:37:48.974Z,90.03
2022-10-05T05:38:09.559Z,89.83
2022-10-05T05:38:30.138Z,89.62
2022-10-05T05:38:50.718Z,89.62
2022-10-05T05:39:11.299Z,89.62
2022-10-05T05:39:31.878Z,89.83
2022-10-05T05:39:52.473Z,90.03
2022-10-05T05:40:13.079Z,90.03
2022-10-05T05:40:33.666Z,90.03
2022-10-05T05:40:54.059Z,89.92
2022-10-05T05:41:14.638Z,90.03
2022-10-05T05:41:35.252Z,90.03
2022-10-05T05:41:55.842Z,89.92
2022-10-05T05:42:16.420Z,89.83
2022-10-05T05:42:37.005Z,89.92
2022-10-05T05:42:57.632Z,89.92
2022-10-05T05:43:18.209Z,89.92
2022-10-05T05:43:38.790Z,89.83
2022-10-05T05:43:59.373Z,89.92
2022-10-05T05:44:19.953Z,89.92
2022-10-05T05:44:40.539Z,89.92
2022-10-05T05:45:00.930Z,90.03
2022-10-05T05:45:21.515Z,90.13
2022-10-05T05:45:41.915Z,90.13
2022-10-05T05:46:02.495Z,90.34
2022-10-05T05:46:38.785Z,90.13
2022-10-05T05:47:03.068Z,90.03
2022-10-05T05:47:05.260Z,90.03
2022-10-05T05:47:26.190Z,90.23
2022-10-05T05:47:46.795Z,90.34
2022-10-05T05:48:07.128Z,90.54
2022-10-05T05:48:27.712Z,90.75
2022-10-05T05:48:48.296Z,90.64
2022-10-05T05:49:08.879Z,90.54
2022-10-05T05:49:29.462Z,90.54
2022-10-05T05:49:50.046Z,90.34
2022-10-05T05:50:10.629Z,90.23
2022-10-05T05:50:31.209Z,90.23
2022-10-05T05:50:51.792Z,90.23
2022-10-05T05:51:12.377Z,90.23
2022-10-05T05:51:32.975Z,90.03
2022-10-05T05:51:53.556Z,90.03
2022-10-05T05:52:14.137Z,89.92
2022-10-05T05:52:34.720Z,90.03
2022-10-05T05:52:55.301Z,90.13
2022-10-05T05:53:15.893Z,90.23
2022-10-05T05:53:36.471Z,90.34
2022-10-05T05:53:57.051Z,90.44
2022-10-05T05:54:17.631Z,90.44
2022-10-05T05:54:38.214Z,90.34
2022-10-05T05:54:58.794Z,90.13
2022-10-05T05:55:19.381Z,90.03
2022-10-05T05:55:39.961Z,90.03
2022-10-05T05:56:00.543Z,90.13
2022-10-05T05:56:21.128Z,90.23
2022-10-05T05:56:41.725Z,90.13
2022-10-05T05:57:02.308Z,90.13
2022-10-05T05:57:22.891Z,90.13
2022-10-05T05:57:43.476Z,90.23
2022-10-05T05:58:04.053Z,90.34
2022-10-05T05:58:24.645Z,90.23
2022-10-05T05:58:45.223Z,90.13
2022-10-05T05:59:05.813Z,90.13
2022-10-05T05:59:26.402Z,90.23
2022-10-05T05:59:46.795Z,90.44
2022-10-05T06:00:07.378Z,90.54
2022-10-05T06:00:27.958Z,90.54
2022-10-05T06:00:48.352Z,90.64
2022-10-05T06:01:20.259Z,90.54
2022-10-05T06:01:33.889Z,90.44
2022-10-05T06:01:49.703Z,90.34
2022-10-05T06:02:10.070Z,90.34
2022-10-05T06:02:30.815Z,90.54
2022-10-05T06:02:51.556Z,90.64
2022-10-05T06:03:12.290Z,90.64
2022-10-05T06:03:32.563Z,90.64
2022-10-05T06:03:53.146Z,90.54
2022-10-05T06:04:13.726Z,90.54
2022-10-05T06:04:34.309Z,90.44
2022-10-05T06:04:54.888Z,90.64
2022-10-05T06:05:15.471Z,90.54
2022-10-05T06:05:36.057Z,90.44
2022-10-05T06:05:56.668Z,90.34
2022-10-05T06:06:17.248Z,90.23
2022-10-05T06:06:37.664Z,90.13
2022-10-05T06:06:58.242Z,90.23
2022-10-05T06:07:18.826Z,90.19
2022-10-05T06:07:39.414Z,90.19
2022-10-05T06:07:59.994Z,90.19
2022-10-05T06:08:20.578Z,90.09
2022-10-05T06:08:41.159Z,89.98
2022-10-05T06:09:01.740Z,89.89
2022-10-05T06:09:22.327Z,89.98
2022-10-05T06:09:42.903Z,89.98
2022-10-05T06:10:03.302Z,89.89
2022-10-05T06:10:23.885Z,89.78
2022-10-05T06:10:44.473Z,89.78
2022-10-05T06:11:05.055Z,89.89
2022-10-05T06:11:25.643Z,89.78
2022-10-05T06:11:46.246Z,89.68
2022-10-05T06:12:06.831Z,89.58
2022-10-05T06:12:27.414Z,89.47
2022-10-05T06:12:47.805Z,89.47
2022-10-05T06:13:08.389Z,89.27
2022-10-05T06:13:28.969Z,89.37
2022-10-05T06:13:49.554Z,89.58
2022-10-05T06:14:10.138Z,89.58
2022-10-05T06:14:30.716Z,89.58
2022-10-05T06:14:51.305Z,89.58
2022-10-05T06:15:11.887Z,89.58
2022-10-05T06:15:32.283Z,89.58
2022-10-05T06:15:53.033Z,89.37
2022-10-05T06:16:13.663Z,89.27
2022-10-05T06:16:34.390Z,89.27
2022-10-05T06:16:55.056Z,89.27
2022-10-05T06:17:15.671Z,89.37
2022-10-05T06:17:36.282Z,89.37
2022-10-05T06:17:56.839Z,89.47
2022-10-05T06:18:17.424Z,89.58
2022-10-05T06:18:37.832Z,89.58
2022-10-05T06:18:58.408Z,89.47
2022-10-05T06:19:18.991Z,89.17
2022-10-05T06:19:39.574Z,89.17
2022-10-05T06:20:04.951Z,89.17
2022-10-05T06:20:20.563Z,89.17
2022-10-05T06:20:41.141Z,89.06
2022-10-05T06:21:01.538Z,88.96
2022-10-05T06:21:22.133Z,88.96
2022-10-05T06:21:42.715Z,89.17
2022-10-05T06:22:03.303Z,89.06
2022-10-05T06:22:23.883Z,89.06
2022-10-05T06:22:44.464Z,89.17
2022-10-05T06:23:05.045Z,89.27
2022-10-05T06:23:25.624Z,89.17
2022-10-05T06:23:46.203Z,89.06
2022-10-05T06:24:06.789Z,89.06
2022-10-05T06:24:27.380Z,89.06
2022-10-05T06:24:47.954Z,88.82
2022-10-05T06:25:08.541Z,88.86
2022-10-05T06:25:29.123Z,88.92
2022-10-05T06:25:49.712Z,89.06
2022-10-05T06:26:11.010Z,89.12
2022-10-05T06:26:31.651Z,89.12